Time;durP1;ratioP1;P1;durP2;ratioP2;P2;SDS_P1;SDS_P2;PMS_P1;PMS_P2;Temp;Humidity;BMP_temperature;BMP_pressure;BME280_temperature;BME280_humidity;BME280_pressure;Samples;Min_cycle;Max_cycle;Signal;HPM_P1;HPM_P2
2022/11/05 00:19:06;;;;;;;3.47;1.30;;;12.00;99.90;;;;;;6127683;29;20068;-82
2022/11/05 00:25:28;;;;;;;3.72;1.90;;;12.10;99.90;;;;;;6127872;29;20593;-83
2022/11/05 00:28:31;;;;;;;4.18;2.97;;;12.00;99.90;;;;;;6128367;29;20479;-83
2022/11/05 00:31:33;;;;;;;5.65;2.25;;;12.00;99.90;;;;;;6127791;29;20058;-83
2022/11/05 00:34:36;;;;;;;4.90;2.67;;;12.00;99.90;;;;;;6128525;29;20040;-83
2022/11/05 00:37:38;;;;;;;7.38;2.83;;;12.00;99.90;;;;;;6128951;29;20047;-83
2022/11/05 00:40:39;;;;;;;4.93;3.03;;;12.00;99.90;;;;;;6129261;29;20062;-83
2022/11/05 00:50:19;;;;;;;8.73;3.47;;;12.00;99.90;;;;;;6128077;29;20040;-83
2022/11/05 00:53:20;;;;;;;5.15;3.17;;;12.00;99.90;;;;;;6128482;29;20052;-83
2022/11/05 00:56:22;;;;;;;10.25;4.25;;;12.00;99.90;;;;;;6128924;29;20055;-83
2022/11/05 00:59:24;;;;;;;6.70;4.20;;;11.90;99.90;;;;;;6128714;29;20155;-83
2022/11/05 01:02:25;;;;;;;7.97;4.30;;;11.90;99.90;;;;;;6128848;29;20044;-83
2022/11/05 01:05:30;;;;;;;11.25;4.38;;;11.90;99.90;;;;;;6129538;29;20044;-83
2022/11/05 01:08:31;;;;;;;14.10;7.50;;;11.90;99.90;;;;;;6133357;29;20051;-82
2022/11/05 01:11:35;;;;;;;10.98;4.82;;;11.90;99.90;;;;;;6155670;28;20047;-84
2022/11/05 01:14:37;;;;;;;12.27;4.63;;;12.00;99.90;;;;;;6156507;29;20046;-84
2022/11/05 01:17:39;;;;;;;12.77;5.00;;;12.00;99.90;;;;;;6155963;29;20047;-83
2022/11/05 01:20:42;;;;;;;13.93;4.97;;;12.00;99.90;;;;;;6157435;28;20421;-83
2022/11/05 01:23:44;;;;;;;12.27;5.50;;;12.00;99.90;;;;;;6155983;29;20051;-83
2022/11/05 01:26:46;;;;;;;10.07;5.38;;;12.10;99.90;;;;;;6157016;28;20417;-84
2022/11/05 01:29:47;;;;;;;10.20;4.57;;;12.10;99.90;;;;;;6156663;28;20425;-84
2022/11/05 01:32:49;;;;;;;12.90;5.70;;;12.20;99.90;;;;;;6157579;28;20051;-83
2022/11/05 01:35:52;;;;;;;12.32;6.30;;;12.20;99.90;;;;;;6155887;28;20497;-85
2022/11/05 01:38:54;;;;;;;10.93;6.32;;;12.20;99.90;;;;;;6152832;28;20047;-84
2022/11/05 01:41:57;;;;;;;10.50;5.70;;;12.20;99.90;;;;;;6155493;28;20054;-82
2022/11/05 01:45:02;;;;;;;11.07;6.28;;;12.20;99.90;;;;;;6155454;28;20055;-83
2022/11/05 01:48:11;;;;;;;19.60;5.85;;;12.10;99.90;;;;;;6155513;28;20047;-83
2022/11/05 01:51:18;;;;;;;13.57;7.00;;;12.20;99.90;;;;;;6155411;28;20060;-83
2022/11/05 01:54:23;;;;;;;15.13;5.82;;;12.20;99.90;;;;;;6155337;28;20047;-83
2022/11/05 01:57:26;;;;;;;19.67;8.48;;;12.20;99.90;;;;;;6155470;28;20522;-83
2022/11/05 02:00:27;;;;;;;16.27;7.68;;;12.20;99.90;;;;;;6155360;29;20062;-83
2022/11/05 02:03:30;;;;;;;15.02;7.28;;;12.10;99.90;;;;;;6155689;28;20047;-83
2022/11/05 02:06:37;;;;;;;19.42;7.60;;;12.20;99.90;;;;;;6155064;28;20118;-83
2022/11/05 02:09:45;;;;;;;14.55;7.72;;;12.20;99.90;;;;;;6151186;28;20516;-83
2022/11/05 02:12:48;;;;;;;14.00;7.28;;;12.10;99.90;;;;;;6154450;29;20044;-83
2022/11/05 02:15:58;;;;;;;19.05;7.78;;;12.10;99.90;;;;;;6178515;28;20536;-83
2022/11/05 02:19:14;;;;;;;17.23;7.43;;;12.10;99.90;;;;;;6179711;28;20046;-83
2022/11/05 02:22:41;;;;;;;18.48;7.55;;;12.20;99.90;;;;;;6179212;28;20062;-83
2022/11/05 02:26:03;;;;;;;16.80;8.20;;;12.20;99.90;;;;;;6186772;28;20441;-82
2022/11/05 02:29:36;;;;;;;16.05;8.05;;;12.30;99.90;;;;;;6187934;28;20066;-83
2022/11/05 02:32:56;;;;;;;17.67;8.07;;;12.30;99.90;;;;;;6185466;28;20046;-84
2022/11/05 02:36:14;;;;;;;16.73;7.75;;;12.30;99.90;;;;;;6182232;28;20050;-83
2022/11/05 02:39:27;;;;;;;17.90;7.93;;;12.40;99.90;;;;;;6177381;28;20058;-84
2022/11/05 02:42:35;;;;;;;16.17;7.55;;;12.40;99.90;;;;;;6175372;28;20049;-84
2022/11/05 02:45:48;;;;;;;17.67;7.45;;;12.40;99.90;;;;;;6181263;28;20046;-84
2022/11/05 02:48:58;;;;;;;16.13;7.18;;;12.30;99.90;;;;;;6180521;28;20046;-83
2022/11/05 02:52:05;;;;;;;13.73;7.97;;;12.30;99.90;;;;;;6174642;28;20054;-84
2022/11/05 02:55:17;;;;;;;17.23;8.63;;;12.30;99.90;;;;;;6181121;28;20047;-83
2022/11/05 02:58:19;;;;;;;18.50;8.25;;;12.20;99.90;;;;;;6181401;28;20058;-83
2022/11/05 03:01:20;;;;;;;13.88;7.47;;;12.20;99.90;;;;;;6179238;28;20057;-84
2022/11/05 03:04:25;;;;;;;21.85;9.20;;;12.20;99.90;;;;;;6180290;28;20061;-84
2022/11/05 03:07:35;;;;;;;19.92;9.32;;;12.20;99.90;;;;;;6177422;28;20532;-85
2022/11/05 03:10:45;;;;;;;17.67;6.95;;;12.20;99.90;;;;;;6179062;28;20428;-84
2022/11/05 03:13:56;;;;;;;16.20;7.20;;;12.10;99.90;;;;;;6176276;28;20059;-83
2022/11/05 03:17:07;;;;;;;15.52;8.10;;;12.20;99.90;;;;;;6176512;28;20050;-84
2022/11/05 03:20:18;;;;;;;16.13;6.60;;;12.10;99.90;;;;;;6178650;28;20054;-83
2022/11/05 03:23:26;;;;;;;11.70;6.47;;;12.10;99.90;;;;;;6177067;28;20074;-83
2022/11/05 03:26:31;;;;;;;16.35;7.25;;;12.10;99.90;;;;;;6175941;28;20047;-83
2022/11/05 03:29:37;;;;;;;17.02;7.95;;;12.20;99.90;;;;;;6172654;28;20047;-83
2022/11/05 03:32:42;;;;;;;18.98;8.13;;;12.20;99.90;;;;;;6176706;28;20047;-83
2022/11/05 03:35:50;;;;;;;24.23;7.78;;;12.20;99.90;;;;;;6177279;28;20050;-82
2022/11/05 03:38:54;;;;;;;15.40;6.97;;;12.20;99.90;;;;;;6177167;28;20050;-83
2022/11/05 03:41:57;;;;;;;17.23;8.32;;;12.20;99.90;;;;;;6177956;28;20505;-83
2022/11/05 03:45:03;;;;;;;18.48;8.45;;;12.20;99.90;;;;;;6178514;28;20047;-84
2022/11/05 03:48:06;;;;;;;14.73;7.13;;;12.20;99.90;;;;;;6176510;28;20051;-84
2022/11/05 03:51:14;;;;;;;17.45;8.48;;;12.20;99.90;;;;;;6177070;28;20058;-84
2022/11/05 03:54:16;;;;;;;17.30;7.72;;;12.20;99.90;;;;;;6176804;28;20051;-83
2022/11/05 03:57:21;;;;;;;19.42;7.80;;;12.20;99.90;;;;;;6176419;28;20051;-85
2022/11/05 04:00:23;;;;;;;20.33;8.77;;;12.20;99.90;;;;;;6177956;28;20051;-85
2022/11/05 04:03:25;;;;;;;19.35;8.00;;;12.30;99.90;;;;;;6173984;28;20156;-83
2022/11/05 04:13:24;;;;;;;18.90;8.77;;;12.30;99.90;;;;;;6163215;28;20055;-85
2022/11/05 04:26:34;;;;;;;20.52;7.55;;;12.30;99.90;;;;;;6153551;28;20039;-83
2022/11/05 04:33:11;;;;;;;20.60;9.32;;;12.20;99.90;;;;;;6101700;29;20083;-83
2022/11/05 04:36:13;;;;;;;16.38;8.38;;;12.20;99.90;;;;;;6101960;29;20107;-84
2022/11/05 04:39:17;;;;;;;13.73;7.70;;;12.20;99.90;;;;;;6149199;28;20047;-83
2022/11/05 04:42:18;;;;;;;16.98;8.32;;;12.20;99.90;;;;;;6155775;28;20050;-83
2022/11/05 04:45:20;;;;;;;14.30;7.43;;;12.30;99.90;;;;;;6157202;28;20597;-83
2022/11/05 04:48:22;;;;;;;13.60;6.78;;;12.30;99.90;;;;;;6156503;28;20055;-83
2022/11/05 04:51:25;;;;;;;17.98;7.97;;;12.40;99.90;;;;;;6153213;28;20058;-83
2022/11/05 04:54:29;;;;;;;16.45;7.82;;;12.40;99.90;;;;;;6153128;28;20695;-83
2022/11/05 04:57:31;;;;;;;15.38;6.10;;;12.40;99.90;;;;;;6153672;28;20560;-83
2022/11/05 05:00:32;;;;;;;12.05;5.72;;;12.40;99.90;;;;;;6154355;28;20074;-83
2022/11/05 05:03:34;;;;;;;8.45;4.45;;;12.30;99.90;;;;;;6153419;28;20417;-83
2022/11/05 05:06:37;;;;;;;8.88;4.03;;;12.30;99.90;;;;;;6156193;28;20711;-82
2022/11/05 05:09:40;;;;;;;10.63;3.70;;;12.20;99.90;;;;;;6156319;28;20425;-83
2022/11/05 05:12:41;;;;;;;13.63;3.97;;;12.20;99.90;;;;;;6158923;28;20059;-83
2022/11/05 05:15:43;;;;;;;7.45;4.07;;;12.10;99.90;;;;;;6170997;28;20047;-83
2022/11/05 05:18:45;;;;;;;5.80;2.42;;;12.10;99.90;;;;;;6157474;28;20047;-83
2022/11/05 05:21:45;;;;;;;22.13;3.50;;;12.10;99.90;;;;;;6156610;28;20058;-83
2022/11/05 05:24:48;;;;;;;6.70;3.65;;;12.00;99.90;;;;;;6157341;28;20047;-83
2022/11/05 05:27:50;;;;;;;6.75;3.35;;;12.00;99.90;;;;;;6156381;28;20066;-83
2022/11/05 05:30:52;;;;;;;8.20;3.33;;;12.00;99.90;;;;;;6156413;28;20047;-83
2022/11/05 05:33:54;;;;;;;16.05;4.85;;;12.00;99.90;;;;;;6156072;28;20494;-83
2022/11/05 05:36:56;;;;;;;7.03;4.00;;;12.00;99.90;;;;;;6155398;28;20051;-83
2022/11/05 05:39:59;;;;;;;9.57;3.40;;;12.00;99.90;;;;;;6154899;28;20062;-82
2022/11/05 05:43:01;;;;;;;6.18;2.72;;;12.00;99.90;;;;;;6155106;28;20051;-83
2022/11/05 05:46:03;;;;;;;6.00;3.08;;;12.00;99.90;;;;;;6154373;28;20050;-83
2022/11/05 05:49:04;;;;;;;7.85;3.88;;;12.00;99.90;;;;;;6156830;28;20051;-82
2022/11/05 05:52:06;;;;;;;6.40;2.83;;;12.00;99.90;;;;;;6157794;28;20055;-82
2022/11/05 05:55:11;;;;;;;5.32;2.28;;;12.00;99.90;;;;;;6155465;28;20065;-82
2022/11/05 05:58:13;;;;;;;11.77;3.47;;;12.00;99.90;;;;;;6154460;28;20058;-83
2022/11/05 06:01:17;;;;;;;11.43;3.35;;;12.00;99.90;;;;;;6156587;28;20054;-84
2022/11/05 06:04:19;;;;;;;6.18;3.10;;;12.00;99.90;;;;;;6155890;28;20058;-83
2022/11/05 06:07:21;;;;;;;10.40;3.80;;;12.00;99.90;;;;;;6155053;28;20055;-84
2022/11/05 06:10:24;;;;;;;5.10;3.03;;;11.90;99.90;;;;;;6156051;28;20055;-84
2022/11/05 06:13:26;;;;;;;10.32;2.97;;;11.90;99.90;;;;;;6156550;28;20083;-84
2022/11/05 06:16:28;;;;;;;8.10;2.83;;;11.90;99.90;;;;;;6162956;28;20047;-84
2022/11/05 06:19:30;;;;;;;8.10;3.10;;;11.90;99.90;;;;;;6155089;28;20123;-84
2022/11/05 06:22:31;;;;;;;6.25;3.15;;;11.90;99.90;;;;;;6154291;28;20050;-83
2022/11/05 06:25:34;;;;;;;6.00;3.28;;;11.80;99.90;;;;;;6153899;28;20043;-82
2022/11/05 06:28:36;;;;;;;14.80;3.53;;;11.80;99.90;;;;;;6154693;28;20055;-83
2022/11/05 06:31:38;;;;;;;5.55;3.08;;;11.80;99.90;;;;;;6154247;28;20051;-83
2022/11/05 06:34:40;;;;;;;8.55;3.47;;;11.80;99.90;;;;;;6153578;28;20077;-83
2022/11/05 06:37:42;;;;;;;10.80;4.20;;;11.80;99.90;;;;;;6153359;28;20043;-83
2022/11/05 06:40:45;;;;;;;10.77;4.28;;;11.80;99.90;;;;;;6158023;28;20044;-83
2022/11/05 06:43:46;;;;;;;7.53;3.05;;;11.80;99.90;;;;;;6167978;28;20062;-84
2022/11/05 06:46:48;;;;;;;7.90;3.33;;;11.80;99.90;;;;;;6166752;28;20043;-83
2022/11/05 06:49:50;;;;;;;13.15;3.00;;;11.80;99.90;;;;;;6157896;28;20043;-83
2022/11/05 06:52:55;;;;;;;9.00;2.83;;;11.80;99.90;;;;;;6157050;28;20065;-82
2022/11/05 06:56:02;;;;;;;8.23;2.70;;;11.80;99.90;;;;;;6156073;28;20058;-84
2022/11/05 06:59:03;;;;;;;6.47;2.65;;;11.80;99.90;;;;;;6155594;28;20058;-83
2022/11/05 07:02:05;;;;;;;6.95;3.33;;;11.80;99.90;;;;;;6155287;28;20051;-83
2022/11/05 07:05:09;;;;;;;4.28;2.22;;;11.80;99.90;;;;;;6155682;28;20051;-84
2022/11/05 07:08:11;;;;;;;6.05;3.05;;;12.00;99.90;;;;;;6155009;28;20106;-83
2022/11/05 07:11:14;;;;;;;10.73;3.40;;;12.00;99.90;;;;;;6155373;28;20058;-83
2022/11/05 07:14:16;;;;;;;5.03;2.08;;;12.00;99.90;;;;;;6153835;28;20202;-83
2022/11/05 07:17:18;;;;;;;11.25;3.13;;;12.00;99.90;;;;;;6162243;28;20051;-84
2022/11/05 07:20:20;;;;;;;9.63;3.00;;;12.10;99.90;;;;;;6155698;28;20059;-83
2022/11/05 07:23:21;;;;;;;6.47;3.05;;;12.10;99.90;;;;;;6155304;28;20055;-83
2022/11/05 07:26:25;;;;;;;7.30;2.75;;;12.20;99.90;;;;;;6154442;28;20043;-83
2022/11/05 07:29:27;;;;;;;8.65;2.97;;;12.20;99.90;;;;;;6154076;28;20047;-83
2022/11/05 07:32:29;;;;;;;7.03;3.50;;;12.20;99.90;;;;;;6155759;28;20062;-83
2022/11/05 07:35:30;;;;;;;20.55;9.48;;;12.20;99.90;;;;;;6154419;28;20058;-84
2022/11/05 07:38:32;;;;;;;8.43;3.30;;;12.20;99.90;;;;;;6153291;28;20047;-83
2022/11/05 07:41:35;;;;;;;5.82;3.03;;;12.30;99.90;;;;;;6154292;28;20046;-83
2022/11/05 07:44:37;;;;;;;11.18;3.00;;;12.40;99.90;;;;;;6154521;28;20055;-82
2022/11/05 07:47:39;;;;;;;7.20;2.90;;;12.40;99.90;;;;;;6152480;28;20046;-82
2022/11/05 07:50:41;;;;;;;8.73;3.47;;;12.50;99.90;;;;;;6153254;28;20055;-83
2022/11/05 07:53:42;;;;;;;6.00;3.42;;;12.50;99.90;;;;;;6152555;28;20064;-83
2022/11/05 07:56:47;;;;;;;7.32;3.30;;;12.60;99.90;;;;;;6153483;28;20051;-82
2022/11/05 07:59:49;;;;;;;5.40;2.60;;;12.70;99.90;;;;;;6152738;28;20050;-83
2022/11/05 08:03:01;;;;;;;7.05;3.35;;;12.70;99.90;;;;;;6153313;28;20051;-82
2022/11/05 08:06:03;;;;;;;4.85;2.92;;;12.70;99.90;;;;;;6152964;28;20047;-82
2022/11/05 08:09:05;;;;;;;5.13;2.08;;;12.70;99.90;;;;;;6152345;28;20047;-83
2022/11/05 08:12:08;;;;;;;5.50;2.05;;;12.80;99.90;;;;;;6152492;28;20442;-82
2022/11/05 08:15:10;;;;;;;3.38;1.92;;;12.70;99.90;;;;;;6152426;28;20497;-83
2022/11/05 08:18:14;;;;;;;2.88;1.70;;;12.70;99.90;;;;;;6177916;28;20054;-83
2022/11/05 08:21:16;;;;;;;6.18;2.00;;;12.60;99.90;;;;;;6181864;28;20057;-82
2022/11/05 08:24:17;;;;;;;4.63;1.70;;;12.60;99.90;;;;;;6182026;28;20051;-82
2022/11/05 08:27:20;;;;;;;3.72;1.90;;;12.60;99.90;;;;;;6180569;28;20444;-82
2022/11/05 08:30:22;;;;;;;4.22;2.30;;;12.70;99.90;;;;;;6181092;28;20156;-83
2022/11/05 08:33:26;;;;;;;3.50;2.20;;;12.80;99.90;;;;;;6181795;28;20043;-83
2022/11/05 08:36:27;;;;;;;5.03;1.80;;;12.90;99.90;;;;;;6183751;28;20055;-83
2022/11/05 08:39:29;;;;;;;2.22;1.48;;;13.00;99.90;;;;;;6181700;28;20050;-82
2022/11/05 08:42:32;;;;;;;7.68;2.28;;;13.20;99.90;;;;;;6180256;28;20085;-82
2022/11/05 08:45:35;;;;;;;2.70;1.52;;;13.30;99.90;;;;;;6179535;28;20050;-82
2022/11/05 08:48:37;;;;;;;3.17;1.73;;;13.40;99.90;;;;;;6179976;28;20156;-83
2022/11/05 08:51:38;;;;;;;3.20;1.70;;;13.60;99.90;;;;;;6179127;28;20054;-82
2022/11/05 08:54:41;;;;;;;5.30;1.88;;;13.80;99.90;;;;;;6181378;28;20038;-82
2022/11/05 08:57:45;;;;;;;7.53;1.95;;;13.90;99.90;;;;;;6180766;28;20057;-82
2022/11/05 09:00:49;;;;;;;4.15;1.98;;;14.00;99.90;;;;;;6179622;28;20055;-82
2022/11/05 09:03:51;;;;;;;5.00;1.90;;;14.10;99.90;;;;;;6178256;28;20158;-83
2022/11/05 09:06:53;;;;;;;6.18;2.10;;;14.30;99.90;;;;;;6179681;28;20046;-82
2022/11/05 09:09:55;;;;;;;4.55;1.90;;;14.20;99.90;;;;;;6179391;28;20489;-82
2022/11/05 09:12:58;;;;;;;3.90;2.10;;;14.30;99.90;;;;;;6179957;28;20057;-83
2022/11/05 09:16:00;;;;;;;4.15;1.25;;;14.30;99.90;;;;;;6180030;28;20050;-82
2022/11/05 09:19:03;;;;;;;12.50;3.08;;;14.30;99.90;;;;;;6156422;28;20056;-81
2022/11/05 09:22:04;;;;;;;4.20;1.45;;;14.30;99.90;;;;;;6181759;28;20097;-82
2022/11/05 09:25:08;;;;;;;4.00;1.58;;;14.30;99.90;;;;;;6179001;28;20105;-82
2022/11/05 09:28:13;;;;;;;2.75;1.50;;;14.50;99.90;;;;;;6195363;28;20556;-82
2022/11/05 09:31:15;;;;;;;3.60;1.67;;;14.70;99.90;;;;;;6178740;28;20050;-82
2022/11/05 09:34:17;;;;;;;3.60;1.75;;;14.90;99.90;;;;;;6179906;28;20073;-81
2022/11/05 09:37:18;;;;;;;5.28;2.40;;;15.10;99.90;;;;;;6180241;28;20057;-82
2022/11/05 09:40:20;;;;;;;5.30;1.50;;;15.20;99.90;;;;;;6180310;28;20398;-82
2022/11/05 09:43:27;;;;;;;3.28;1.70;;;15.30;99.90;;;;;;6181443;28;20058;-82
2022/11/05 09:46:40;;;;;;;3.38;1.55;;;15.30;99.90;;;;;;6180456;28;20043;-83
2022/11/05 09:49:46;;;;;;;8.48;1.98;;;15.40;99.90;;;;;;6180063;28;20058;-82
2022/11/05 09:52:48;;;;;;;2.85;1.40;;;15.40;99.90;;;;;;6180666;28;20073;-81
2022/11/05 09:55:53;;;;;;;4.15;1.75;;;15.30;99.90;;;;;;6178550;28;20053;-83
2022/11/05 09:58:59;;;;;;;1.77;1.27;;;15.30;99.90;;;;;;6178798;28;20046;-81
2022/11/05 10:02:09;;;;;;;10.98;1.70;;;15.30;99.90;;;;;;6179981;28;20051;-83
2022/11/05 10:05:13;;;;;;;2.75;1.38;;;15.30;99.90;;;;;;6182099;28;20517;-83
2022/11/05 10:08:27;;;;;;;3.10;1.58;;;15.40;99.90;;;;;;6180743;28;20050;-82
2022/11/05 10:11:35;;;;;;;3.83;2.35;;;15.50;99.90;;;;;;6180229;28;20536;-83
2022/11/05 10:14:41;;;;;;;4.60;1.75;;;15.60;99.90;;;;;;6178901;28;20541;-83
2022/11/05 10:17:53;;;;;;;3.00;1.33;;;15.80;99.90;;;;;;6178492;28;20047;-83
2022/11/05 10:20:56;;;;;;;3.42;1.27;;;15.80;99.90;;;;;;6178177;28;20428;-82
2022/11/05 10:23:58;;;;;;;5.32;1.42;;;15.80;99.90;;;;;;6155021;29;20513;-82
2022/11/05 10:27:01;;;;;;;5.68;1.88;;;16.10;99.90;;;;;;6171829;28;20043;-83
2022/11/05 10:30:05;;;;;;;3.55;2.13;;;16.60;99.90;;;;;;6178315;28;20050;-83
2022/11/05 10:33:08;;;;;;;2.80;1.60;;;17.00;99.20;;;;;;6179713;28;20061;-82
2022/11/05 10:36:17;;;;;;;3.58;1.48;;;17.20;98.20;;;;;;6181291;28;20038;-83
2022/11/05 10:39:22;;;;;;;5.05;1.42;;;17.20;97.60;;;;;;6178346;28;20055;-83
2022/11/05 10:42:39;;;;;;;3.15;1.58;;;17.40;97.80;;;;;;6179067;28;20057;-84
2022/11/05 10:45:54;;;;;;;2.60;1.23;;;17.90;97.70;;;;;;6178737;28;20055;-83
2022/11/05 10:49:06;;;;;;;4.18;1.70;;;18.60;96.90;;;;;;6179274;28;20220;-83
2022/11/05 10:52:19;;;;;;;3.03;1.48;;;18.90;94.20;;;;;;6180445;28;20058;-84
2022/11/05 10:55:24;;;;;;;2.55;1.38;;;19.10;93.80;;;;;;6179592;28;20049;-84
2022/11/05 10:58:29;;;;;;;1.80;1.20;;;19.40;93.20;;;;;;6177665;28;20077;-84
2022/11/05 11:01:32;;;;;;;5.45;1.58;;;19.50;92.10;;;;;;6179474;28;20089;-84
2022/11/05 11:04:34;;;;;;;13.25;2.13;;;19.50;91.90;;;;;;6181761;28;20055;-83
2022/11/05 11:07:39;;;;;;;2.13;1.30;;;19.70;90.60;;;;;;6182346;28;20066;-84
2022/11/05 11:10:47;;;;;;;3.17;1.52;;;19.60;90.10;;;;;;6181807;28;20050;-84
2022/11/05 11:13:51;;;;;;;22.17;3.90;;;19.30;90.30;;;;;;6179618;28;20073;-82
2022/11/05 11:16:56;;;;;;;3.72;1.20;;;19.20;90.70;;;;;;6180172;28;20058;-84
2022/11/05 11:20:21;;;;;;;7.07;1.50;;;19.30;90.60;;;;;;6172281;28;20057;-84
2022/11/05 11:23:23;;;;;;;8.68;2.53;;;19.80;90.80;;;;;;6144515;28;20195;-83
2022/11/05 11:26:28;;;;;;;5.30;1.90;;;20.40;89.10;;;;;;6192033;28;20042;-83
2022/11/05 11:29:34;;;;;;;4.10;1.40;;;20.50;86.70;;;;;;6185066;28;20046;-83
2022/11/05 11:32:39;;;;;;;4.97;1.48;;;20.30;84.60;;;;;;6203249;28;20520;-83
2022/11/05 11:35:46;;;;;;;5.18;2.22;;;19.90;83.70;;;;;;6204809;28;20073;-82
2022/11/05 11:38:48;;;;;;;5.03;1.97;;;19.40;84.30;;;;;;6201606;28;20042;-83
2022/11/05 11:41:52;;;;;;;6.18;1.70;;;19.10;85.00;;;;;;6202038;28;20058;-83
2022/11/05 11:44:54;;;;;;;6.65;1.55;;;18.70;85.70;;;;;;6202243;28;20397;-82
2022/11/05 11:48:01;;;;;;;5.88;1.98;;;18.80;86.60;;;;;;6201377;28;20050;-83
2022/11/05 11:51:19;;;;;;;3.78;1.83;;;18.70;85.40;;;;;;6202820;28;20050;-83
2022/11/05 11:54:24;;;;;;;4.38;1.70;;;19.10;86.20;;;;;;6201817;28;20042;-83
2022/11/05 11:57:28;;;;;;;5.10;1.40;;;19.50;84.80;;;;;;6201556;28;20043;-83
2022/11/05 12:00:31;;;;;;;5.38;1.67;;;20.00;84.10;;;;;;6201121;28;20046;-83
2022/11/05 12:03:40;;;;;;;4.78;1.15;;;20.30;82.60;;;;;;6200667;28;20054;-83
2022/11/05 12:06:51;;;;;;;5.43;1.70;;;20.10;80.90;;;;;;6201341;28;20054;-82
2022/11/05 12:10:03;;;;;;;6.75;3.25;;;19.80;81.00;;;;;;6200813;28;20278;-82
2022/11/05 12:13:32;;;;;;;4.22;2.05;;;19.40;81.40;;;;;;6199958;28;20055;-81
2022/11/05 12:16:59;;;;;;;5.78;1.60;;;18.80;81.50;;;;;;6199325;28;20042;-83
2022/11/05 12:20:20;;;;;;;3.13;1.80;;;18.70;82.90;;;;;;6197342;28;20054;-83
2022/11/05 12:23:34;;;;;;;4.88;1.83;;;19.10;83.80;;;;;;6177104;28;20536;-84
2022/11/05 12:26:46;;;;;;;7.97;1.33;;;19.50;82.10;;;;;;6178198;28;20051;-83
2022/11/05 12:29:57;;;;;;;4.05;1.55;;;19.50;80.10;;;;;;6178487;28;20050;-82
2022/11/05 12:33:20;;;;;;;2.50;1.02;;;19.30;79.40;;;;;;6180821;28;20042;-84
2022/11/05 12:36:40;;;;;;;2.08;0.88;;;19.00;79.20;;;;;;6179862;28;20045;-84
2022/11/05 12:40:09;;;;;;;3.03;1.48;;;18.70;79.00;;;;;;6179910;28;20051;-83
2022/11/05 12:43:19;;;;;;;4.97;1.40;;;18.50;80.50;;;;;;6180304;28;20051;-83
2022/11/05 12:46:29;;;;;;;6.82;1.80;;;18.50;80.80;;;;;;6179962;28;20050;-82
2022/11/05 12:49:45;;;;;;;4.28;1.55;;;18.30;80.80;;;;;;6176786;28;20049;-82
2022/11/05 12:53:09;;;;;;;7.78;1.50;;;18.00;80.50;;;;;;6177120;28;20074;-83
2022/11/05 12:56:16;;;;;;;3.83;1.80;;;17.50;81.30;;;;;;6176942;28;20082;-82
2022/11/05 12:59:24;;;;;;;4.53;1.50;;;17.20;81.90;;;;;;6176998;28;20058;-82
2022/11/05 13:02:33;;;;;;;4.63;1.42;;;16.80;82.40;;;;;;6179117;28;20058;-81
2022/11/05 13:05:38;;;;;;;7.93;1.58;;;16.40;82.70;;;;;;6182270;28;20050;-81
2022/11/05 13:08:48;;;;;;;9.13;2.70;;;16.00;83.50;;;;;;6181296;28;20042;-81
2022/11/05 13:11:54;;;;;;;6.93;2.95;;;15.80;84.20;;;;;;6180472;28;20398;-80
2022/11/05 13:14:59;;;;;;;4.55;2.60;;;15.50;84.30;;;;;;6180623;28;20059;-81
2022/11/05 13:18:05;;;;;;;2.30;1.30;;;15.40;84.70;;;;;;6180485;28;20520;-81
2022/11/05 13:21:08;;;;;;;6.28;1.70;;;15.30;84.70;;;;;;6179900;28;20074;-81
2022/11/05 13:24:17;;;;;;;11.25;5.85;;;15.40;85.10;;;;;;6180090;28;20050;-81
2022/11/05 13:27:40;;;;;;;25.02;14.45;;;15.60;85.00;;;;;;6180317;28;20087;-80
2022/11/05 13:30:45;;;;;;;30.67;16.80;;;15.70;84.50;;;;;;6180060;28;20051;-81
2022/11/05 13:33:49;;;;;;;14.85;6.85;;;15.70;84.30;;;;;;6180075;28;20055;-81
2022/11/05 13:40:21;;;;;;;10.02;4.95;;;15.90;84.10;;;;;;6178321;28;20537;-80
2022/11/05 13:43:43;;;;;;;5.75;3.47;;;15.90;83.80;;;;;;6180387;28;20144;-83
2022/11/05 13:47:02;;;;;;;6.00;3.90;;;16.00;84.00;;;;;;6179043;28;20062;-81
2022/11/05 13:50:24;;;;;;;9.48;5.35;;;16.10;83.80;;;;;;6177944;28;20078;-80
2022/11/05 13:53:51;;;;;;;11.57;3.58;;;16.20;83.50;;;;;;6178924;28;20051;-81
2022/11/05 13:57:12;;;;;;;12.18;2.47;;;16.30;83.60;;;;;;6178538;28;20059;-81
2022/11/05 14:00:18;;;;;;;8.25;6.53;;;16.20;83.10;;;;;;6177253;28;20153;-80
2022/11/05 14:03:21;;;;;;;9.93;3.80;;;16.10;83.30;;;;;;6178055;28;20046;-81
2022/11/05 14:06:26;;;;;;;10.68;4.78;;;16.10;83.10;;;;;;6177085;28;20534;-81
2022/11/05 14:09:28;;;;;;;12.10;4.88;;;16.00;82.60;;;;;;6177710;28;20053;-81
2022/11/05 14:12:34;;;;;;;12.02;5.85;;;16.00;82.40;;;;;;6176936;28;20043;-81
2022/11/05 14:15:36;;;;;;;30.88;13.82;;;15.90;81.90;;;;;;6176973;28;20078;-81
2022/11/05 14:18:44;;;;;;;30.38;15.18;;;15.90;81.90;;;;;;6176668;28;20539;-81
2022/11/05 14:21:48;;;;;;;;;;;15.80;81.80;;;;;;6178003;28;20126;-81
2022/11/05 14:24:49;;;;;;;26.35;9.15;;;15.90;82.40;;;;;;6176209;28;19922;-82
2022/11/05 14:27:52;;;;;;;16.30;7.10;;;15.80;82.10;;;;;;6177981;28;20047;-81
2022/11/05 14:30:54;;;;;;;15.02;6.53;;;15.80;82.60;;;;;;6128165;28;1507134;-82
2022/11/05 14:34:02;;;;;;;36.58;10.13;;;15.80;83.30;;;;;;6179985;28;20475;-81
2022/11/05 14:37:24;;;;;;;;;;;15.90;83.30;;;;;;6181123;28;20047;-82
2022/11/05 14:40:33;;;;;;;12.45;6.82;;;16.00;83.20;;;;;;6179925;28;20558;-82
2022/11/05 14:43:36;;;;;;;21.05;10.57;;;16.20;82.50;;;;;;6178912;28;20497;-82
2022/11/05 14:46:43;;;;;;;23.33;10.75;;;16.30;82.30;;;;;;6176995;28;20046;-82
2022/11/05 14:49:51;;;;;;;15.73;8.00;;;16.30;82.00;;;;;;6178236;28;20061;-81
2022/11/05 14:52:55;;;;;;;6.10;2.95;;;16.20;81.90;;;;;;6179312;28;20057;-81
2022/11/05 14:56:01;;;;;;;11.80;5.05;;;16.10;82.00;;;;;;6178881;28;20078;-83
2022/11/05 14:59:36;;;;;;;27.02;13.73;;;15.90;82.10;;;;;;6180495;28;20414;-81
2022/11/05 15:02:56;;;;;;;3.75;1.58;;;15.70;82.90;;;;;;6181629;28;20062;-81
2022/11/05 15:06:05;;;;;;;4.78;0.90;;;15.60;83.70;;;;;;6180763;28;20535;-82
2022/11/05 15:09:22;;;;;;;2.42;1.50;;;15.60;83.50;;;;;;6183745;28;20063;-82
2022/11/05 15:12:31;;;;;;;4.55;1.30;;;15.60;83.50;;;;;;6182138;28;20057;-81
2022/11/05 15:15:43;;;;;;;4.38;1.58;;;15.60;83.30;;;;;;6178973;28;20062;-82
2022/11/05 15:18:47;;;;;;;12.93;3.15;;;15.40;84.30;;;;;;6178267;28;20043;-82
2022/11/05 15:21:50;;;;;;;6.43;1.73;;;15.30;84.00;;;;;;6178187;28;20051;-82
2022/11/05 15:24:52;;;;;;;2.92;1.20;;;15.10;84.40;;;;;;6177895;28;20054;-82
2022/11/05 15:28:04;;;;;;;7.10;1.73;;;14.90;84.40;;;;;;6208274;28;20138;-81
2022/11/05 15:31:20;;;;;;;6.80;1.55;;;14.70;84.90;;;;;;6217266;28;20054;-82
2022/11/05 15:34:27;;;;;;;7.75;1.75;;;14.80;85.10;;;;;;6208943;28;20046;-81
2022/11/05 15:37:29;;;;;;;6.43;1.97;;;14.70;85.10;;;;;;6206446;28;20506;-80
2022/11/05 15:40:35;;;;;;;4.10;2.63;;;14.60;85.10;;;;;;6205291;28;20468;-81
2022/11/05 15:43:45;;;;;;;2.45;1.50;;;14.40;85.20;;;;;;6202279;28;20053;-84
2022/11/05 15:46:47;;;;;;;6.32;2.45;;;14.40;85.90;;;;;;6201566;28;20057;-82
2022/11/05 15:49:52;;;;;;;113.97;38.50;;;14.10;86.10;;;;;;6188013;28;20063;-83
2022/11/05 15:52:55;;;;;;;56.60;18.83;;;13.90;86.20;;;;;;6177123;28;20544;-82
2022/11/05 15:56:05;;;;;;;27.85;10.77;;;14.00;86.70;;;;;;6176529;28;20054;-83
2022/11/05 15:59:39;;;;;;;13.23;4.43;;;13.60;86.90;;;;;;6175605;28;20043;-85
2022/11/05 16:02:41;;;;;;;40.65;17.50;;;13.40;87.50;;;;;;6177366;28;20046;-81
2022/11/05 16:05:48;;;;;;;23.38;12.75;;;13.30;87.80;;;;;;6158686;28;20114;-84
2022/11/05 16:08:50;;;;;;;14.70;6.60;;;13.10;88.30;;;;;;6175848;28;20051;-84
2022/11/05 16:12:14;;;;;;;26.25;15.65;;;12.90;88.50;;;;;;6174173;28;20059;-83
2022/11/05 16:15:23;;;;;;;11.50;3.13;;;12.70;89.00;;;;;;6190930;28;20046;-83
2022/11/05 16:18:31;;;;;;;10.55;2.95;;;12.60;89.20;;;;;;6198514;28;20432;-84
2022/11/05 16:21:52;;;;;;;10.57;3.08;;;12.40;89.60;;;;;;6199987;28;20046;-84
2022/11/05 16:24:54;;;;;;;5.20;1.50;;;12.20;90.10;;;;;;6187639;28;20047;-84
2022/11/05 16:28:26;;;;;;;12.70;2.38;;;12.10;90.20;;;;;;6141316;28;20054;-84
2022/11/05 16:51:28;;;;;;;5.40;1.90;;;11.00;91.50;;;;;;6157353;28;20473;-84
2022/11/05 16:54:43;;;;;;;6.18;1.80;;;10.90;91.60;;;;;;6164864;28;20404;-83
2022/11/05 17:01:06;;;;;;;7.13;1.92;;;10.60;91.90;;;;;;6182372;28;20140;-82
2022/11/05 17:04:13;;;;;;;4.68;1.92;;;10.50;92.30;;;;;;6178450;28;20148;-83
2022/11/05 17:07:17;;;;;;;7.78;2.85;;;10.40;92.30;;;;;;6191802;28;20051;-84
2022/11/05 17:10:36;;;;;;;9.93;2.08;;;10.30;92.30;;;;;;6181005;28;20050;-83
2022/11/05 17:13:45;;;;;;;8.95;2.13;;;10.10;92.60;;;;;;6168488;28;20054;-85
2022/11/05 17:21:00;;;;;;;3.53;2.05;;;9.90;92.80;;;;;;6197051;28;20046;-85
2022/11/05 17:24:16;;;;;;;5.03;1.67;;;9.70;93.20;;;;;;6170179;28;20538;-85